Kezdőlap
METAR-TAF:

METAR-TAF

Repülőterek :

Fairfield Municipal Airport

Fairfield, Illinois, Amerikai Egyesült Államok

földrajzi szélesség: 38-22-43N, földrajzi hosszúság: 088-24-46W, magasság: 133 m

Jelenlegi meteorológiai megfigyelések

A jelentés 21 perccel ezelõtt készült, 09:15 UTC
Északi szél 4 kt
Hőmérséklet 20°C
Páratartalom 83%
Légköri nyomás 1018 hPa
Látótávolság: 16.1 km
Szakadozott felhőzet 9500 lábon

METAR: KFWC 210915Z AUTO 36004KT 10SM BKN095 20/17 A3007 RMK AO2 T02000168

Idő: 04:36 (09:36 UTC)


TAF: hiányzik

Meteorológiai megfigyelések és előrejelzések több, mint 4000 repülőtéren (METAR és TAF jelentéseket).

A térképen piros és sárga pontok jelzik az elérhető meteorológiai állomásokat.

Mozgassa az egeret a pont fölött, hogy megjelenjen az állomás neve.

Azután kattintson az időjárási megfigyelések és előrejelzések megtekintéséhez.

A térkép megváltoztatása: kattintson a fekete keresztel jelölt zöld gombra ráközelítéshez, a vonallal jelölt zöld gombra távolításhoz, vagy a zöld nyilakra a szomszédos térképek eléréséhez.


METAR-TAF: